sensor_id;sensor_type;location;lat;lon;timestamp;P1;durP1;ratioP1;P2;durP2;ratioP2
72974;SDS011;61166;54.228;37.632;2023-05-16T00:02:05;5.57;;;3.15;;
72974;SDS011;61166;54.228;37.632;2023-05-16T00:04:31;7.60;;;4.45;;
72974;SDS011;61166;54.228;37.632;2023-05-16T00:06:58;9.40;;;4.38;;
72974;SDS011;61166;54.228;37.632;2023-05-16T00:09:24;9.93;;;3.88;;
72974;SDS011;61166;54.228;37.632;2023-05-16T00:11:51;7.22;;;3.70;;
72974;SDS011;61166;54.228;37.632;2023-05-16T00:14:17;5.68;;;3.38;;
72974;SDS011;61166;54.228;37.632;2023-05-16T00:16:43;4.93;;;2.55;;
72974;SDS011;61166;54.228;37.632;2023-05-16T00:19:10;7.10;;;3.60;;
72974;SDS011;61166;54.228;37.632;2023-05-16T00:21:36;5.53;;;2.70;;
72974;SDS011;61166;54.228;37.632;2023-05-16T00:24:03;8.13;;;3.58;;
72974;SDS011;61166;54.228;37.632;2023-05-16T00:26:30;5.88;;;3.50;;
72974;SDS011;61166;54.228;37.632;2023-05-16T00:28:56;6.60;;;3.92;;
72974;SDS011;61166;54.228;37.632;2023-05-16T00:31:22;7.40;;;2.95;;
72974;SDS011;61166;54.228;37.632;2023-05-16T00:33:49;8.48;;;3.33;;
72974;SDS011;61166;54.228;37.632;2023-05-16T00:36:15;6.82;;;3.28;;
72974;SDS011;61166;54.228;37.632;2023-05-16T00:38:42;6.43;;;3.60;;
72974;SDS011;61166;54.228;37.632;2023-05-16T00:41:08;6.13;;;3.13;;
72974;SDS011;61166;54.228;37.632;2023-05-16T00:43:34;7.82;;;3.20;;
72974;SDS011;61166;54.228;37.632;2023-05-16T00:46:01;7.03;;;3.28;;
72974;SDS011;61166;54.228;37.632;2023-05-16T00:48:27;8.25;;;3.75;;
72974;SDS011;61166;54.228;37.632;2023-05-16T00:50:54;7.80;;;4.47;;
72974;SDS011;61166;54.228;37.632;2023-05-16T00:53:20;11.77;;;4.80;;
72974;SDS011;61166;54.228;37.632;2023-05-16T00:55:46;8.98;;;3.80;;
72974;SDS011;61166;54.228;37.632;2023-05-16T00:58:13;6.03;;;3.30;;
72974;SDS011;61166;54.228;37.632;2023-05-16T01:00:39;5.10;;;3.55;;
72974;SDS011;61166;54.228;37.632;2023-05-16T01:03:06;5.60;;;3.60;;
72974;SDS011;61166;54.228;37.632;2023-05-16T01:05:33;6.32;;;3.45;;
72974;SDS011;61166;54.228;37.632;2023-05-16T01:07:59;6.60;;;3.72;;
72974;SDS011;61166;54.228;37.632;2023-05-16T01:10:26;6.55;;;3.20;;
72974;SDS011;61166;54.228;37.632;2023-05-16T01:15:35;6.28;;;2.75;;
72974;SDS011;61166;54.228;37.632;2023-05-16T01:18:05;5.38;;;2.95;;
72974;SDS011;61166;54.228;37.632;2023-05-16T01:20:52;5.97;;;3.17;;
72974;SDS011;61166;54.228;37.632;2023-05-16T01:24:08;7.72;;;2.97;;
72974;SDS011;61166;54.228;37.632;2023-05-16T01:28:45;6.40;;;2.37;;
72974;SDS011;61166;54.228;37.632;2023-05-16T01:31:11;6.93;;;3.92;;
72974;SDS011;61166;54.228;37.632;2023-05-16T01:33:38;7.15;;;3.80;;
72974;SDS011;61166;54.228;37.632;2023-05-16T01:38:55;11.52;;;4.93;;
72974;SDS011;61166;54.228;37.632;2023-05-16T01:41:38;23.10;;;9.77;;
72974;SDS011;61166;54.228;37.632;2023-05-16T01:44:07;10.23;;;4.18;;
72974;SDS011;61166;54.228;37.632;2023-05-16T01:46:36;5.05;;;2.88;;
72974;SDS011;61166;54.228;37.632;2023-05-16T01:49:12;6.40;;;3.53;;
72974;SDS011;61166;54.228;37.632;2023-05-16T01:51:40;7.60;;;3.67;;
72974;SDS011;61166;54.228;37.632;2023-05-16T01:54:08;9.93;;;5.28;;
72974;SDS011;61166;54.228;37.632;2023-05-16T01:56:37;6.93;;;3.67;;
72974;SDS011;61166;54.228;37.632;2023-05-16T01:59:03;8.43;;;3.00;;
72974;SDS011;61166;54.228;37.632;2023-05-16T02:01:30;6.13;;;3.20;;
72974;SDS011;61166;54.228;37.632;2023-05-16T02:03:57;5.97;;;2.85;;
72974;SDS011;61166;54.228;37.632;2023-05-16T02:06:23;9.65;;;3.70;;
72974;SDS011;61166;54.228;37.632;2023-05-16T02:08:50;6.85;;;3.33;;
72974;SDS011;61166;54.228;37.632;2023-05-16T02:11:16;6.22;;;3.38;;
72974;SDS011;61166;54.228;37.632;2023-05-16T02:13:43;6.65;;;3.28;;
72974;SDS011;61166;54.228;37.632;2023-05-16T02:16:09;4.63;;;2.85;;
72974;SDS011;61166;54.228;37.632;2023-05-16T02:18:36;4.35;;;3.45;;
72974;SDS011;61166;54.228;37.632;2023-05-16T02:21:02;4.13;;;2.95;;
72974;SDS011;61166;54.228;37.632;2023-05-16T02:23:29;8.00;;;4.10;;
72974;SDS011;61166;54.228;37.632;2023-05-16T02:25:55;4.25;;;2.97;;
72974;SDS011;61166;54.228;37.632;2023-05-16T02:28:21;6.07;;;3.75;;
72974;SDS011;61166;54.228;37.632;2023-05-16T02:30:57;5.97;;;3.38;;
72974;SDS011;61166;54.228;37.632;2023-05-16T02:33:27;6.43;;;3.78;;
72974;SDS011;61166;54.228;37.632;2023-05-16T02:35:54;6.07;;;4.03;;
72974;SDS011;61166;54.228;37.632;2023-05-16T02:38:20;6.60;;;3.38;;
72974;SDS011;61166;54.228;37.632;2023-05-16T02:40:47;6.97;;;3.50;;
72974;SDS011;61166;54.228;37.632;2023-05-16T02:43:13;8.55;;;3.50;;
72974;SDS011;61166;54.228;37.632;2023-05-16T02:45:40;6.13;;;3.17;;
72974;SDS011;61166;54.228;37.632;2023-05-16T02:48:06;4.60;;;3.80;;
72974;SDS011;61166;54.228;37.632;2023-05-16T02:50:33;4.93;;;4.43;;
72974;SDS011;61166;54.228;37.632;2023-05-16T02:53:00;4.53;;;4.13;;
72974;SDS011;61166;54.228;37.632;2023-05-16T02:55:26;5.28;;;4.22;;
72974;SDS011;61166;54.228;37.632;2023-05-16T02:57:53;6.57;;;4.13;;
72974;SDS011;61166;54.228;37.632;2023-05-16T03:00:19;5.03;;;4.10;;
72974;SDS011;61166;54.228;37.632;2023-05-16T03:02:46;5.30;;;4.47;;
72974;SDS011;61166;54.228;37.632;2023-05-16T03:05:12;7.30;;;4.65;;
72974;SDS011;61166;54.228;37.632;2023-05-16T03:07:39;5.45;;;3.97;;
72974;SDS011;61166;54.228;37.632;2023-05-16T03:10:06;5.07;;;4.33;;
72974;SDS011;61166;54.228;37.632;2023-05-16T03:12:32;5.18;;;4.68;;
72974;SDS011;61166;54.228;37.632;2023-05-16T03:14:59;5.63;;;4.60;;
72974;SDS011;61166;54.228;37.632;2023-05-16T03:17:25;6.90;;;4.72;;
72974;SDS011;61166;54.228;37.632;2023-05-16T03:19:52;6.72;;;5.32;;
72974;SDS011;61166;54.228;37.632;2023-05-16T03:22:19;6.17;;;4.97;;
72974;SDS011;61166;54.228;37.632;2023-05-16T03:24:45;5.40;;;4.75;;
72974;SDS011;61166;54.228;37.632;2023-05-16T03:27:12;7.00;;;5.85;;
72974;SDS011;61166;54.228;37.632;2023-05-16T03:29:38;5.72;;;5.22;;
72974;SDS011;61166;54.228;37.632;2023-05-16T03:32:04;6.75;;;5.95;;
72974;SDS011;61166;54.228;37.632;2023-05-16T03:34:31;5.70;;;5.10;;
72974;SDS011;61166;54.228;37.632;2023-05-16T03:36:57;7.40;;;6.25;;
72974;SDS011;61166;54.228;37.632;2023-05-16T03:39:24;7.18;;;6.57;;
72974;SDS011;61166;54.228;37.632;2023-05-16T03:41:50;7.55;;;6.78;;
72974;SDS011;61166;54.228;37.632;2023-05-16T03:44:17;6.97;;;6.32;;
72974;SDS011;61166;54.228;37.632;2023-05-16T03:46:43;6.47;;;5.87;;
72974;SDS011;61166;54.228;37.632;2023-05-16T03:49:09;7.55;;;6.82;;
72974;SDS011;61166;54.228;37.632;2023-05-16T03:51:36;7.43;;;6.55;;
72974;SDS011;61166;54.228;37.632;2023-05-16T03:54:02;9.93;;;6.82;;
72974;SDS011;61166;54.228;37.632;2023-05-16T03:56:29;7.90;;;7.15;;
72974;SDS011;61166;54.228;37.632;2023-05-16T03:58:56;7.17;;;6.37;;
72974;SDS011;61166;54.228;37.632;2023-05-16T04:01:22;9.38;;;6.18;;
72974;SDS011;61166;54.228;37.632;2023-05-16T04:03:49;10.50;;;8.15;;
72974;SDS011;61166;54.228;37.632;2023-05-16T04:06:16;7.43;;;6.72;;
72974;SDS011;61166;54.228;37.632;2023-05-16T04:08:42;13.57;;;9.23;;
72974;SDS011;61166;54.228;37.632;2023-05-16T04:11:09;14.23;;;8.63;;
72974;SDS011;61166;54.228;37.632;2023-05-16T04:13:35;9.50;;;8.25;;
72974;SDS011;61166;54.228;37.632;2023-05-16T04:16:01;9.25;;;8.35;;
72974;SDS011;61166;54.228;37.632;2023-05-16T04:18:28;10.10;;;9.15;;
72974;SDS011;61166;54.228;37.632;2023-05-16T04:20:54;10.90;;;9.05;;
72974;SDS011;61166;54.228;37.632;2023-05-16T04:23:21;10.47;;;8.17;;
72974;SDS011;61166;54.228;37.632;2023-05-16T04:25:48;9.90;;;8.85;;
72974;SDS011;61166;54.228;37.632;2023-05-16T04:28:14;10.25;;;9.35;;
72974;SDS011;61166;54.228;37.632;2023-05-16T04:30:40;11.73;;;8.98;;
72974;SDS011;61166;54.228;37.632;2023-05-16T04:33:07;17.63;;;10.65;;
72974;SDS011;61166;54.228;37.632;2023-05-16T04:35:33;9.43;;;8.07;;
72974;SDS011;61166;54.228;37.632;2023-05-16T04:38:00;12.48;;;9.70;;
72974;SDS011;61166;54.228;37.632;2023-05-16T04:40:26;10.45;;;9.45;;
72974;SDS011;61166;54.228;37.632;2023-05-16T04:42:53;11.05;;;9.30;;
72974;SDS011;61166;54.228;37.632;2023-05-16T04:45:19;10.35;;;9.38;;
72974;SDS011;61166;54.228;37.632;2023-05-16T04:47:45;9.50;;;8.57;;
72974;SDS011;61166;54.228;37.632;2023-05-16T04:50:12;9.10;;;8.30;;
72974;SDS011;61166;54.228;37.632;2023-05-16T04:52:38;9.60;;;8.57;;
72974;SDS011;61166;54.228;37.632;2023-05-16T04:55:05;12.75;;;8.95;;
72974;SDS011;61166;54.228;37.632;2023-05-16T04:57:31;12.05;;;10.30;;
72974;SDS011;61166;54.228;37.632;2023-05-16T04:59:58;10.10;;;9.10;;
72974;SDS011;61166;54.228;37.632;2023-05-16T05:02:24;12.20;;;9.10;;
72974;SDS011;61166;54.228;37.632;2023-05-16T05:04:51;11.10;;;10.00;;
72974;SDS011;61166;54.228;37.632;2023-05-16T05:07:17;10.05;;;8.32;;
72974;SDS011;61166;54.228;37.632;2023-05-16T05:09:43;13.48;;;9.85;;
72974;SDS011;61166;54.228;37.632;2023-05-16T05:12:10;10.03;;;9.13;;
72974;SDS011;61166;54.228;37.632;2023-05-16T05:14:36;12.05;;;8.73;;
72974;SDS011;61166;54.228;37.632;2023-05-16T05:17:03;11.65;;;8.90;;
72974;SDS011;61166;54.228;37.632;2023-05-16T05:19:29;10.65;;;9.45;;
72974;SDS011;61166;54.228;37.632;2023-05-16T05:21:55;10.65;;;9.00;;
72974;SDS011;61166;54.228;37.632;2023-05-16T05:24:22;9.13;;;8.37;;
72974;SDS011;61166;54.228;37.632;2023-05-16T05:26:48;9.32;;;8.02;;
72974;SDS011;61166;54.228;37.632;2023-05-16T05:29:15;9.23;;;8.52;;
72974;SDS011;61166;54.228;37.632;2023-05-16T05:31:41;8.73;;;7.07;;
72974;SDS011;61166;54.228;37.632;2023-05-16T05:34:07;8.55;;;7.68;;
72974;SDS011;61166;54.228;37.632;2023-05-16T05:36:34;9.77;;;8.90;;
72974;SDS011;61166;54.228;37.632;2023-05-16T05:39:00;7.90;;;7.07;;
72974;SDS011;61166;54.228;37.632;2023-05-16T05:41:27;8.77;;;7.93;;
72974;SDS011;61166;54.228;37.632;2023-05-16T05:43:53;8.13;;;7.18;;
72974;SDS011;61166;54.228;37.632;2023-05-16T05:46:19;6.65;;;6.20;;
72974;SDS011;61166;54.228;37.632;2023-05-16T05:48:46;8.47;;;7.67;;
72974;SDS011;61166;54.228;37.632;2023-05-16T05:51:12;8.98;;;7.80;;
72974;SDS011;61166;54.228;37.632;2023-05-16T05:53:39;18.45;;;7.57;;
72974;SDS011;61166;54.228;37.632;2023-05-16T05:56:06;8.82;;;7.43;;
72974;SDS011;61166;54.228;37.632;2023-05-16T05:58:32;8.02;;;7.22;;
72974;SDS011;61166;54.228;37.632;2023-05-16T06:00:59;8.67;;;6.40;;
72974;SDS011;61166;54.228;37.632;2023-05-16T06:03:25;7.95;;;7.28;;
72974;SDS011;61166;54.228;37.632;2023-05-16T06:05:51;6.95;;;6.05;;
72974;SDS011;61166;54.228;37.632;2023-05-16T06:08:18;7.40;;;6.45;;
72974;SDS011;61166;54.228;37.632;2023-05-16T06:10:44;8.30;;;7.75;;
72974;SDS011;61166;54.228;37.632;2023-05-16T06:13:11;7.43;;;5.90;;
72974;SDS011;61166;54.228;37.632;2023-05-16T06:15:37;6.90;;;6.10;;
72974;SDS011;61166;54.228;37.632;2023-05-16T06:18:03;7.43;;;6.72;;
72974;SDS011;61166;54.228;37.632;2023-05-16T06:20:30;7.25;;;6.65;;
72974;SDS011;61166;54.228;37.632;2023-05-16T06:22:57;7.20;;;6.55;;
72974;SDS011;61166;54.228;37.632;2023-05-16T06:25:23;7.93;;;5.80;;
72974;SDS011;61166;54.228;37.632;2023-05-16T06:27:49;6.50;;;5.90;;
72974;SDS011;61166;54.228;37.632;2023-05-16T06:30:16;7.63;;;6.75;;
72974;SDS011;61166;54.228;37.632;2023-05-16T06:32:42;16.05;;;6.63;;
72974;SDS011;61166;54.228;37.632;2023-05-16T06:35:09;6.45;;;5.90;;
72974;SDS011;61166;54.228;37.632;2023-05-16T06:37:35;7.63;;;6.93;;
72974;SDS011;61166;54.228;37.632;2023-05-16T06:40:02;6.68;;;6.05;;
72974;SDS011;61166;54.228;37.632;2023-05-16T06:42:28;9.90;;;7.75;;
72974;SDS011;61166;54.228;37.632;2023-05-16T06:44:54;6.95;;;6.35;;
72974;SDS011;61166;54.228;37.632;2023-05-16T06:47:21;8.70;;;7.50;;
72974;SDS011;61166;54.228;37.632;2023-05-16T06:49:47;7.77;;;6.93;;
72974;SDS011;61166;54.228;37.632;2023-05-16T06:52:14;7.40;;;6.57;;
72974;SDS011;61166;54.228;37.632;2023-05-16T06:54:40;7.30;;;6.70;;
72974;SDS011;61166;54.228;37.632;2023-05-16T06:57:07;7.32;;;6.70;;
72974;SDS011;61166;54.228;37.632;2023-05-16T06:59:33;8.30;;;7.57;;
72974;SDS011;61166;54.228;37.632;2023-05-16T07:02:00;8.80;;;6.83;;
72974;SDS011;61166;54.228;37.632;2023-05-16T07:04:26;7.97;;;7.05;;
72974;SDS011;61166;54.228;37.632;2023-05-16T07:06:53;9.88;;;8.38;;
72974;SDS011;61166;54.228;37.632;2023-05-16T07:09:20;10.52;;;7.00;;
72974;SDS011;61166;54.228;37.632;2023-05-16T07:11:46;11.45;;;7.05;;
72974;SDS011;61166;54.228;37.632;2023-05-16T07:14:12;11.33;;;6.27;;
72974;SDS011;61166;54.228;37.632;2023-05-16T07:16:39;9.70;;;6.65;;
72974;SDS011;61166;54.228;37.632;2023-05-16T07:19:05;11.23;;;7.38;;
72974;SDS011;61166;54.228;37.632;2023-05-16T07:21:32;9.40;;;7.43;;
72974;SDS011;61166;54.228;37.632;2023-05-16T07:23:58;6.43;;;5.80;;
72974;SDS011;61166;54.228;37.632;2023-05-16T07:26:25;6.67;;;5.37;;
72974;SDS011;61166;54.228;37.632;2023-05-16T07:28:51;5.85;;;5.35;;
72974;SDS011;61166;54.228;37.632;2023-05-16T07:31:18;6.63;;;6.00;;
72974;SDS011;61166;54.228;37.632;2023-05-16T07:33:44;7.50;;;6.13;;
72974;SDS011;61166;54.228;37.632;2023-05-16T07:36:11;6.43;;;5.57;;
72974;SDS011;61166;54.228;37.632;2023-05-16T07:38:42;5.43;;;5.00;;
72974;SDS011;61166;54.228;37.632;2023-05-16T07:41:09;7.15;;;4.03;;
72974;SDS011;61166;54.228;37.632;2023-05-16T07:43:35;5.05;;;4.65;;
72974;SDS011;61166;54.228;37.632;2023-05-16T07:46:01;5.22;;;3.83;;
72974;SDS011;61166;54.228;37.632;2023-05-16T07:48:28;6.85;;;5.93;;
72974;SDS011;61166;54.228;37.632;2023-05-16T07:50:55;6.20;;;4.60;;
72974;SDS011;61166;54.228;37.632;2023-05-16T07:53:21;5.05;;;4.53;;
72974;SDS011;61166;54.228;37.632;2023-05-16T07:55:48;3.97;;;3.63;;
72974;SDS011;61166;54.228;37.632;2023-05-16T07:58:14;3.72;;;3.42;;
72974;SDS011;61166;54.228;37.632;2023-05-16T08:00:41;4.57;;;4.15;;
72974;SDS011;61166;54.228;37.632;2023-05-16T08:03:07;5.10;;;4.03;;
72974;SDS011;61166;54.228;37.632;2023-05-16T08:05:34;5.78;;;4.00;;
72974;SDS011;61166;54.228;37.632;2023-05-16T08:08:00;4.38;;;3.97;;
72974;SDS011;61166;54.228;37.632;2023-05-16T08:10:27;7.35;;;3.60;;
72974;SDS011;61166;54.228;37.632;2023-05-16T08:12:53;3.50;;;3.20;;
72974;SDS011;61166;54.228;37.632;2023-05-16T08:15:20;3.00;;;2.60;;
72974;SDS011;61166;54.228;37.632;2023-05-16T08:17:46;3.92;;;3.30;;
72974;SDS011;61166;54.228;37.632;2023-05-16T08:20:13;4.22;;;3.67;;
72974;SDS011;61166;54.228;37.632;2023-05-16T08:22:39;3.75;;;3.40;;
72974;SDS011;61166;54.228;37.632;2023-05-16T08:25:06;3.65;;;3.35;;
72974;SDS011;61166;54.228;37.632;2023-05-16T08:27:32;6.13;;;3.23;;
72974;SDS011;61166;54.228;37.632;2023-05-16T08:29:58;3.97;;;3.10;;
72974;SDS011;61166;54.228;37.632;2023-05-16T08:32:25;4.32;;;3.67;;
72974;SDS011;61166;54.228;37.632;2023-05-16T08:34:51;3.38;;;2.85;;
72974;SDS011;61166;54.228;37.632;2023-05-16T08:37:18;4.32;;;3.92;;
72974;SDS011;61166;54.228;37.632;2023-05-16T08:39:44;3.20;;;2.83;;
72974;SDS011;61166;54.228;37.632;2023-05-16T08:42:11;4.20;;;3.10;;
72974;SDS011;61166;54.228;37.632;2023-05-16T08:44:37;3.95;;;3.28;;
72974;SDS011;61166;54.228;37.632;2023-05-16T08:47:06;3.53;;;3.15;;
72974;SDS011;61166;54.228;37.632;2023-05-16T08:49:36;3.50;;;3.20;;
72974;SDS011;61166;54.228;37.632;2023-05-16T08:52:04;3.80;;;3.43;;
72974;SDS011;61166;54.228;37.632;2023-05-16T08:54:33;3.97;;;3.60;;
72974;SDS011;61166;54.228;37.632;2023-05-16T08:57:00;4.68;;;3.28;;
72974;SDS011;61166;54.228;37.632;2023-05-16T08:59:27;3.95;;;3.40;;
72974;SDS011;61166;54.228;37.632;2023-05-16T09:01:54;3.92;;;3.53;;
72974;SDS011;61166;54.228;37.632;2023-05-16T09:04:21;4.63;;;2.93;;
72974;SDS011;61166;54.228;37.632;2023-05-16T09:06:48;4.60;;;3.53;;
72974;SDS011;61166;54.228;37.632;2023-05-16T09:09:15;5.40;;;3.38;;
72974;SDS011;61166;54.228;37.632;2023-05-16T09:11:41;4.43;;;3.75;;
72974;SDS011;61166;54.228;37.632;2023-05-16T09:14:08;4.05;;;3.65;;
72974;SDS011;61166;54.228;37.632;2023-05-16T09:16:34;3.67;;;3.37;;
72974;SDS011;61166;54.228;37.632;2023-05-16T09:19:00;5.55;;;4.28;;
72974;SDS011;61166;54.228;37.632;2023-05-16T09:21:28;3.78;;;3.47;;
72974;SDS011;61166;54.228;37.632;2023-05-16T09:23:55;4.68;;;2.95;;
72974;SDS011;61166;54.228;37.632;2023-05-16T09:26:21;3.15;;;2.78;;
72974;SDS011;61166;54.228;37.632;2023-05-16T09:28:48;7.90;;;3.40;;
72974;SDS011;61166;54.228;37.632;2023-05-16T09:31:21;4.13;;;3.78;;
72974;SDS011;61166;54.228;37.632;2023-05-16T09:33:48;4.15;;;3.15;;
72974;SDS011;61166;54.228;37.632;2023-05-16T09:36:15;5.65;;;3.85;;
72974;SDS011;61166;54.228;37.632;2023-05-16T09:38:41;7.65;;;3.08;;
72974;SDS011;61166;54.228;37.632;2023-05-16T09:41:08;5.20;;;2.37;;
72974;SDS011;61166;54.228;37.632;2023-05-16T09:43:36;6.47;;;3.50;;
72974;SDS011;61166;54.228;37.632;2023-05-16T09:46:06;4.57;;;2.88;;
72974;SDS011;61166;54.228;37.632;2023-05-16T09:48:33;4.38;;;3.17;;
72974;SDS011;61166;54.228;37.632;2023-05-16T09:50:59;4.65;;;2.88;;
72974;SDS011;61166;54.228;37.632;2023-05-16T09:53:29;3.17;;;2.50;;
72974;SDS011;61166;54.228;37.632;2023-05-16T09:58:27;4.10;;;3.60;;
72974;SDS011;61166;54.228;37.632;2023-05-16T10:00:54;4.65;;;1.80;;
72974;SDS011;61166;54.228;37.632;2023-05-16T10:03:22;4.07;;;2.40;;
72974;SDS011;61166;54.228;37.632;2023-05-16T10:05:50;5.10;;;1.87;;
72974;SDS011;61166;54.228;37.632;2023-05-16T10:08:16;2.97;;;1.83;;
72974;SDS011;61166;54.228;37.632;2023-05-16T10:10:43;5.40;;;2.05;;
72974;SDS011;61166;54.228;37.632;2023-05-16T10:13:10;9.68;;;2.00;;
72974;SDS011;61166;54.228;37.632;2023-05-16T10:15:37;5.07;;;1.40;;
72974;SDS011;61166;54.228;37.632;2023-05-16T10:18:04;4.50;;;1.30;;
72974;SDS011;61166;54.228;37.632;2023-05-16T10:20:32;4.13;;;1.90;;
72974;SDS011;61166;54.228;37.632;2023-05-16T10:22:59;2.88;;;1.40;;
72974;SDS011;61166;54.228;37.632;2023-05-16T10:25:28;4.25;;;1.92;;
72974;SDS011;61166;54.228;37.632;2023-05-16T10:27:57;5.15;;;1.95;;
72974;SDS011;61166;54.228;37.632;2023-05-16T10:30:24;6.83;;;2.40;;
72974;SDS011;61166;54.228;37.632;2023-05-16T10:32:51;5.45;;;2.50;;
72974;SDS011;61166;54.228;37.632;2023-05-16T10:35:18;3.10;;;1.92;;
72974;SDS011;61166;54.228;37.632;2023-05-16T10:37:45;3.08;;;1.98;;
72974;SDS011;61166;54.228;37.632;2023-05-16T10:40:11;4.85;;;2.13;;
72974;SDS011;61166;54.228;37.632;2023-05-16T10:42:38;3.17;;;1.87;;
72974;SDS011;61166;54.228;37.632;2023-05-16T10:45:08;4.07;;;2.00;;
72974;SDS011;61166;54.228;37.632;2023-05-16T10:47:34;4.28;;;1.80;;
72974;SDS011;61166;54.228;37.632;2023-05-16T10:50:01;4.03;;;1.90;;
72974;SDS011;61166;54.228;37.632;2023-05-16T10:52:33;5.47;;;1.67;;
72974;SDS011;61166;54.228;37.632;2023-05-16T10:55:01;3.60;;;1.80;;
72974;SDS011;61166;54.228;37.632;2023-05-16T10:57:28;2.97;;;1.67;;
72974;SDS011;61166;54.228;37.632;2023-05-16T10:59:54;5.18;;;1.58;;
72974;SDS011;61166;54.228;37.632;2023-05-16T11:04:59;2.90;;;1.85;;
72974;SDS011;61166;54.228;37.632;2023-05-16T11:07:35;2.50;;;1.60;;
72974;SDS011;61166;54.228;37.632;2023-05-16T11:12:35;2.85;;;1.45;;
72974;SDS011;61166;54.228;37.632;2023-05-16T11:15:01;2.40;;;1.23;;
72974;SDS011;61166;54.228;37.632;2023-05-16T11:17:42;3.08;;;1.33;;
72974;SDS011;61166;54.228;37.632;2023-05-16T11:20:24;3.40;;;1.43;;
72974;SDS011;61166;54.228;37.632;2023-05-16T11:22:50;6.28;;;2.15;;
72974;SDS011;61166;54.228;37.632;2023-05-16T11:25:19;3.88;;;1.67;;
72974;SDS011;61166;54.228;37.632;2023-05-16T11:28:00;4.43;;;1.60;;
72974;SDS011;61166;54.228;37.632;2023-05-16T11:30:26;4.93;;;1.20;;
72974;SDS011;61166;54.228;37.632;2023-05-16T11:32:53;5.50;;;1.50;;
72974;SDS011;61166;54.228;37.632;2023-05-16T11:35:20;3.45;;;1.50;;
72974;SDS011;61166;54.228;37.632;2023-05-16T11:37:47;3.55;;;1.30;;
72974;SDS011;61166;54.228;37.632;2023-05-16T11:40:13;1.90;;;1.17;;
72974;SDS011;61166;54.228;37.632;2023-05-16T11:42:42;3.90;;;1.70;;
72974;SDS011;61166;54.228;37.632;2023-05-16T11:45:09;2.20;;;1.40;;
72974;SDS011;61166;54.228;37.632;2023-05-16T11:47:36;2.47;;;1.50;;
72974;SDS011;61166;54.228;37.632;2023-05-16T11:50:09;5.00;;;1.45;;
72974;SDS011;61166;54.228;37.632;2023-05-16T11:52:36;3.97;;;1.70;;
72974;SDS011;61166;54.228;37.632;2023-05-16T11:55:03;2.90;;;1.50;;
72974;SDS011;61166;54.228;37.632;2023-05-16T11:57:30;3.13;;;2.10;;
72974;SDS011;61166;54.228;37.632;2023-05-16T12:00:01;4.10;;;1.88;;
72974;SDS011;61166;54.228;37.632;2023-05-16T12:02:27;3.60;;;1.70;;
72974;SDS011;61166;54.228;37.632;2023-05-16T12:04:54;9.15;;;1.80;;
72974;SDS011;61166;54.228;37.632;2023-05-16T12:07:26;5.30;;;2.05;;
72974;SDS011;61166;54.228;37.632;2023-05-16T12:09:53;2.37;;;1.13;;
72974;SDS011;61166;54.228;37.632;2023-05-16T12:12:20;6.45;;;1.40;;
72974;SDS011;61166;54.228;37.632;2023-05-16T12:14:46;4.28;;;1.10;;
72974;SDS011;61166;54.228;37.632;2023-05-16T12:17:14;5.47;;;1.55;;
72974;SDS011;61166;54.228;37.632;2023-05-16T12:19:40;2.72;;;1.73;;
72974;SDS011;61166;54.228;37.632;2023-05-16T12:22:14;3.63;;;1.50;;
72974;SDS011;61166;54.228;37.632;2023-05-16T12:24:41;11.65;;;1.60;;
72974;SDS011;61166;54.228;37.632;2023-05-16T12:27:07;3.08;;;1.17;;
72974;SDS011;61166;54.228;37.632;2023-05-16T12:29:34;3.67;;;1.60;;
72974;SDS011;61166;54.228;37.632;2023-05-16T12:32:00;3.45;;;1.60;;
72974;SDS011;61166;54.228;37.632;2023-05-16T12:34:28;4.43;;;1.73;;
72974;SDS011;61166;54.228;37.632;2023-05-16T12:36:54;3.40;;;1.42;;
72974;SDS011;61166;54.228;37.632;2023-05-16T12:39:21;2.95;;;1.13;;
72974;SDS011;61166;54.228;37.632;2023-05-16T12:41:48;7.20;;;1.73;;
72974;SDS011;61166;54.228;37.632;2023-05-16T12:44:15;3.22;;;1.50;;
72974;SDS011;61166;54.228;37.632;2023-05-16T12:46:42;7.13;;;1.63;;
72974;SDS011;61166;54.228;37.632;2023-05-16T12:49:09;2.95;;;1.80;;
72974;SDS011;61166;54.228;37.632;2023-05-16T12:51:35;4.40;;;1.75;;
72974;SDS011;61166;54.228;37.632;2023-05-16T12:54:09;3.00;;;1.63;;
72974;SDS011;61166;54.228;37.632;2023-05-16T12:56:39;3.60;;;1.45;;
72974;SDS011;61166;54.228;37.632;2023-05-16T12:59:06;3.77;;;1.53;;
72974;SDS011;61166;54.228;37.632;2023-05-16T13:01:33;3.35;;;1.23;;
72974;SDS011;61166;54.228;37.632;2023-05-16T13:04:00;2.67;;;1.30;;
72974;SDS011;61166;54.228;37.632;2023-05-16T13:06:31;3.95;;;0.98;;
72974;SDS011;61166;54.228;37.632;2023-05-16T13:09:18;2.25;;;1.30;;
72974;SDS011;61166;54.228;37.632;2023-05-16T13:11:45;2.13;;;1.50;;
72974;SDS011;61166;54.228;37.632;2023-05-16T13:14:12;3.47;;;1.70;;
72974;SDS011;61166;54.228;37.632;2023-05-16T13:16:38;4.57;;;1.10;;
72974;SDS011;61166;54.228;37.632;2023-05-16T13:19:05;2.55;;;1.38;;
72974;SDS011;61166;54.228;37.632;2023-05-16T13:21:31;2.17;;;1.00;;
72974;SDS011;61166;54.228;37.632;2023-05-16T13:23:58;4.57;;;1.60;;
72974;SDS011;61166;54.228;37.632;2023-05-16T13:26:24;2.42;;;1.42;;
72974;SDS011;61166;54.228;37.632;2023-05-16T13:28:51;6.30;;;1.50;;
72974;SDS011;61166;54.228;37.632;2023-05-16T13:31:18;4.20;;;1.60;;
72974;SDS011;61166;54.228;37.632;2023-05-16T13:33:44;3.53;;;1.40;;
72974;SDS011;61166;54.228;37.632;2023-05-16T13:36:11;3.70;;;1.87;;
72974;SDS011;61166;54.228;37.632;2023-05-16T13:38:37;5.30;;;1.20;;
72974;SDS011;61166;54.228;37.632;2023-05-16T13:41:03;6.13;;;1.90;;
72974;SDS011;61166;54.228;37.632;2023-05-16T13:43:30;5.72;;;1.70;;
72974;SDS011;61166;54.228;37.632;2023-05-16T13:45:56;6.00;;;1.58;;
72974;SDS011;61166;54.228;37.632;2023-05-16T13:48:23;3.63;;;1.47;;
72974;SDS011;61166;54.228;37.632;2023-05-16T13:50:49;2.25;;;1.05;;
72974;SDS011;61166;54.228;37.632;2023-05-16T13:53:16;3.60;;;1.38;;
72974;SDS011;61166;54.228;37.632;2023-05-16T13:55:42;2.67;;;1.35;;
72974;SDS011;61166;54.228;37.632;2023-05-16T13:58:09;7.32;;;1.95;;
72974;SDS011;61166;54.228;37.632;2023-05-16T14:00:35;8.30;;;2.40;;
72974;SDS011;61166;54.228;37.632;2023-05-16T14:03:08;5.55;;;1.90;;
72974;SDS011;61166;54.228;37.632;2023-05-16T14:05:35;4.32;;;1.40;;
72974;SDS011;61166;54.228;37.632;2023-05-16T14:08:01;2.55;;;1.30;;
72974;SDS011;61166;54.228;37.632;2023-05-16T14:10:28;1.80;;;0.98;;
72974;SDS011;61166;54.228;37.632;2023-05-16T14:12:55;6.10;;;1.60;;
72974;SDS011;61166;54.228;37.632;2023-05-16T14:15:21;9.20;;;1.95;;
72974;SDS011;61166;54.228;37.632;2023-05-16T14:17:47;2.20;;;1.25;;
72974;SDS011;61166;54.228;37.632;2023-05-16T14:20:14;2.80;;;1.63;;
72974;SDS011;61166;54.228;37.632;2023-05-16T14:22:40;4.78;;;1.80;;
72974;SDS011;61166;54.228;37.632;2023-05-16T14:25:07;4.70;;;1.50;;
72974;SDS011;61166;54.228;37.632;2023-05-16T14:27:33;3.97;;;1.55;;
72974;SDS011;61166;54.228;37.632;2023-05-16T14:30:00;7.93;;;2.47;;
72974;SDS011;61166;54.228;37.632;2023-05-16T14:32:26;7.38;;;2.75;;
72974;SDS011;61166;54.228;37.632;2023-05-16T14:34:53;5.45;;;2.05;;
72974;SDS011;61166;54.228;37.632;2023-05-16T14:37:19;5.77;;;2.13;;
72974;SDS011;61166;54.228;37.632;2023-05-16T14:39:46;4.30;;;1.73;;
72974;SDS011;61166;54.228;37.632;2023-05-16T14:42:12;4.03;;;1.52;;
72974;SDS011;61166;54.228;37.632;2023-05-16T14:44:39;5.07;;;1.23;;
72974;SDS011;61166;54.228;37.632;2023-05-16T14:47:05;3.35;;;1.27;;
72974;SDS011;61166;54.228;37.632;2023-05-16T14:49:31;3.60;;;1.63;;